Time,TemperatureF,DewpointF,PressureIn,WindDirection,WindDirectionDegrees,WindSpeedMPH,WindSpeedGustMPH,Humidity,HourlyPrecipIn,Conditions,Clouds,dailyrainin,SoftwareType,DateUTC
2013-01-02 00:11:00,39.7,38.0,29.96,West,277,7.0,-999.0,95,-99.99,,,0.13,weatherlink.com 1.10,2013-01-02 05:11:00,
2013-01-02 00:25:00,39.7,38.0,29.95,NW,305,6.0,-999.0,94,-99.99,,,0.00,weatherlink.com 1.10,2013-01-02 05:25:00,
2013-01-02 00:40:00,39.4,38.0,29.95,NW,325,5.0,-999.0,95,-99.99,,,0.00,weatherlink.com 1.10,2013-01-02 05:40:00,
2013-01-02 00:55:00,39.5,38.0,29.94,WSW,254,8.0,-999.0,95,-99.99,,,0.00,weatherlink.com 1.10,2013-01-02 05:55:00,
2013-01-02 01:10:00,39.5,38.0,29.94,WSW,252,8.0,-999.0,95,-99.99,,,0.00,weatherlink.com 1.10,2013-01-02 06:10:00,
2013-01-02 01:25:00,39.4,38.0,29.94,NW,308,6.0,-999.0,95,-99.99,,,0.00,weatherlink.com 1.10,2013-01-02 06:25:00,
2013-01-02 01:41:00,39.4,38.0,29.93,NW,306,6.0,-999.0,96,-99.99,,,0.00,weatherlink.com 1.10,2013-01-02 06:41:00,
2013-01-02 01:55:00,39.3,38.0,29.93,NW,306,8.0,-999.0,96,-99.99,,,0.00,weatherlink.com 1.10,2013-01-02 06:55:00,
2013-01-02 02:10:00,39.2,38.0,29.93,West,277,13.0,-999.0,96,-99.99,,,0.00,weatherlink.com 1.10,2013-01-02 07:10:00,
2013-01-02 02:25:00,39.1,38.0,29.93,WNW,285,11.0,-999.0,97,-99.99,,,0.00,weatherlink.com 1.10,2013-01-02 07:25:00,
2013-01-02 02:40:00,39.0,38.0,29.93,WNW,298,13.0,-999.0,97,-99.99,,,0.00,weatherlink.com 1.10,2013-01-02 07:40:00,
2013-01-02 02:55:00,38.8,38.0,29.92,NW,304,16.0,-999.0,97,-99.99,,,0.00,weatherlink.com 1.10,2013-01-02 07:55:00,
2013-01-02 03:10:00,37.9,37.0,29.94,NW,323,13.0,-999.0,97,-99.99,,,0.00,weatherlink.com 1.10,2013-01-02 08:10:00,
2013-01-02 03:24:00,37.3,37.0,29.95,WNW,290,14.0,-999.0,97,-99.99,,,0.00,weatherlink.com 1.10,2013-01-02 08:24:00,
2013-01-02 03:39:00,36.7,36.0,29.95,NW,307,19.0,-999.0,97,-99.99,,,0.00,weatherlink.com 1.10,2013-01-02 08:39:00,
2013-01-02 03:55:00,36.1,36.0,29.95,NW,307,22.0,-999.0,98,-99.99,,,0.01,weatherlink.com 1.10,2013-01-02 08:55:00,
2013-01-02 04:10:00,35.4,35.0,29.95,NW,322,27.0,-999.0,98,-99.99,,,0.01,weatherlink.com 1.10,2013-01-02 09:10:00,
2013-01-02 04:25:00,35.1,34.0,29.94,NW,326,24.0,-999.0,97,-99.99,,,0.01,weatherlink.com 1.10,2013-01-02 09:25:00,
2013-01-02 04:40:00,34.8,34.0,29.93,NW,309,29.0,-999.0,97,-99.99,,,0.01,weatherlink.com 1.10,2013-01-02 09:40:00,
2013-01-02 04:55:00,34.8,34.0,29.95,North,355,10.0,-999.0,97,-99.99,,,0.01,weatherlink.com 1.10,2013-01-02 09:55:00,
2013-01-02 05:10:00,34.7,34.0,29.95,NW,314,20.0,-999.0,96,-99.99,,,0.01,weatherlink.com 1.10,2013-01-02 10:10:00,
2013-01-02 05:25:00,35.0,34.0,29.95,NNW,329,18.0,-999.0,96,-99.99,,,0.01,weatherlink.com 1.10,2013-01-02 10:25:00,
2013-01-02 05:40:00,35.2,34.0,29.96,WNW,293,15.0,-999.0,94,-99.99,,,0.01,weatherlink.com 1.10,2013-01-02 10:40:00,
2013-01-02 05:55:00,35.7,34.0,29.95,NW,308,16.0,-999.0,93,-99.99,,,0.01,weatherlink.com 1.10,2013-01-02 10:55:00,
2013-01-02 06:10:00,36.4,34.0,29.96,WNW,299,18.0,-999.0,90,-99.99,,,0.01,weatherlink.com 1.10,2013-01-02 11:10:00,
2013-01-02 06:25:00,36.0,34.0,29.97,West,261,13.0,-999.0,91,-99.99,,,0.01,weatherlink.com 1.10,2013-01-02 11:25:00,
2013-01-02 06:40:00,34.9,33.0,29.98,WNW,294,12.0,-999.0,93,-99.99,,,0.01,weatherlink.com 1.10,2013-01-02 11:40:00,
2013-01-02 06:58:00,33.5,33.0,29.98,WNW,294,18.0,-999.0,96,-99.99,,,0.01,weatherlink.com 1.10,2013-01-02 11:58:00,
2013-01-02 07:10:00,33.1,32.0,29.99,NW,314,16.0,-999.0,97,-99.99,,,0.01,weatherlink.com 1.10,2013-01-02 12:10:00,
2013-01-02 07:25:00,32.4,32.0,30.00,NW,307,12.0,-999.0,97,-99.99,,,0.01,weatherlink.com 1.10,2013-01-02 12:25:00,
2013-01-02 07:40:00,31.9,31.0,30.00,NW,306,13.0,-999.0,98,-99.99,,,0.01,weatherlink.com 1.10,2013-01-02 12:40:00,
2013-01-02 07:55:00,31.6,31.0,30.01,WNW,299,18.0,-999.0,98,-99.99,,,0.01,weatherlink.com 1.10,2013-01-02 12:55:00,
2013-01-02 08:14:00,31.4,31.0,30.01,WNW,300,16.0,-999.0,97,-99.99,,,0.01,weatherlink.com 1.10,2013-01-02 13:14:00,
2013-01-02 08:25:00,31.1,30.0,30.02,WNW,300,17.0,-999.0,97,-99.99,,,0.01,weatherlink.com 1.10,2013-01-02 13:25:00,
2013-01-02 08:41:00,30.7,30.0,30.02,WNW,300,4.0,-999.0,97,-99.99,,,0.01,weatherlink.com 1.10,2013-01-02 13:41:00,
2013-01-02 08:55:00,30.3,30.0,30.04,WNW,300,4.0,-999.0,97,-99.99,,,0.01,weatherlink.com 1.10,2013-01-02 13:55:00,
2013-01-02 09:10:00,30.3,30.0,30.05,WNW,300,11.0,-999.0,97,-99.99,,,0.01,weatherlink.com 1.10,2013-01-02 14:10:00,
2013-01-02 09:25:00,30.4,30.0,30.05,WNW,300,9.0,-999.0,97,-99.99,,,0.01,weatherlink.com 1.10,2013-01-02 14:25:00,
2013-01-02 09:39:00,30.5,30.0,30.05,WNW,300,2.0,-999.0,96,-99.99,,,0.01,weatherlink.com 1.10,2013-01-02 14:39:00,
2013-01-02 09:55:00,30.5,29.0,30.08,WNW,300,8.0,-999.0,95,-99.99,,,0.01,weatherlink.com 1.10,2013-01-02 14:55:00,
2013-01-02 10:10:00,30.5,29.0,30.07,WNW,300,12.0,-999.0,94,-99.99,,,0.01,weatherlink.com 1.10,2013-01-02 15:10:00,
2013-01-02 10:25:00,30.8,29.0,30.09,WNW,300,6.0,-999.0,93,-99.99,,,0.01,weatherlink.com 1.10,2013-01-02 15:25:00,
2013-01-02 10:40:00,30.8,29.0,30.09,WNW,299,7.0,-999.0,92,-99.99,,,0.01,weatherlink.com 1.10,2013-01-02 15:40:00,
2013-01-02 10:54:00,30.8,29.0,30.09,WNW,300,4.0,-999.0,93,-99.99,,,0.01,weatherlink.com 1.10,2013-01-02 15:54:00,
2013-01-02 11:11:00,31.4,29.0,30.09,NW,309,9.0,-999.0,92,-99.99,,,0.01,weatherlink.com 1.10,2013-01-02 16:11:00,
2013-01-02 11:25:00,32.0,30.0,30.08,NNW,329,7.0,-999.0,91,-99.99,,,0.01,weatherlink.com 1.10,2013-01-02 16:25:00,
2013-01-02 11:41:00,31.9,29.0,30.07,NW,319,9.0,-999.0,90,-99.99,,,0.01,weatherlink.com 1.10,2013-01-02 16:41:00,
2013-01-02 11:55:00,31.4,29.0,30.07,NW,319,3.0,-999.0,91,-99.99,,,0.01,weatherlink.com 1.10,2013-01-02 16:55:00,
2013-01-02 12:13:00,32.5,30.0,30.07,NNW,329,5.0,-999.0,90,-99.99,,,0.01,weatherlink.com 1.10,2013-01-02 17:13:00,
2013-01-02 12:24:00,32.8,30.0,30.06,NNW,340,7.0,-999.0,88,-99.99,,,0.01,weatherlink.com 1.10,2013-01-02 17:24:00,
2013-01-02 12:39:00,33.7,30.0,30.06,NNW,344,6.0,-999.0,86,-99.99,,,0.01,weatherlink.com 1.10,2013-01-02 17:39:00,
2013-01-02 12:54:00,33.9,30.0,30.06,WNW,297,4.0,-999.0,85,-99.99,,,0.01,weatherlink.com 1.10,2013-01-02 17:54:00,
2013-01-02 13:09:00,35.3,31.0,30.07,West,279,4.0,-999.0,83,-99.99,,,0.01,weatherlink.com 1.10,2013-01-02 18:09:00,
2013-01-02 13:24:00,36.0,30.0,30.06,NW,314,8.0,-999.0,79,-99.99,,,0.01,weatherlink.com 1.10,2013-01-02 18:24:00,
2013-01-02 13:39:00,36.2,30.0,30.06,NNW,329,4.0,-999.0,77,-99.99,,,0.01,weatherlink.com 1.10,2013-01-02 18:39:00,
2013-01-02 13:54:00,37.0,30.0,30.06,NW,322,6.0,-999.0,76,-99.99,,,0.01,weatherlink.com 1.10,2013-01-02 18:54:00,
2013-01-02 14:09:00,37.1,30.0,30.06,NW,316,6.0,-999.0,75,-99.99,,,0.01,weatherlink.com 1.10,2013-01-02 19:09:00,
2013-01-02 14:24:00,36.4,31.0,30.06,NNW,337,5.0,-999.0,82,-99.99,,,0.01,weatherlink.com 1.10,2013-01-02 19:24:00,
2013-01-02 14:39:00,35.9,31.0,30.05,NNW,337,2.0,-999.0,83,-99.99,,,0.01,weatherlink.com 1.10,2013-01-02 19:39:00,
2013-01-02 14:54:00,35.3,32.0,30.06,North,355,4.0,-999.0,86,-99.99,,,0.01,weatherlink.com 1.10,2013-01-02 19:54:00,
2013-01-02 15:09:00,35.1,32.0,30.07,NNW,330,5.0,-999.0,87,-99.99,,,0.01,weatherlink.com 1.10,2013-01-02 20:09:00,
2013-01-02 15:24:00,34.6,31.0,30.07,NNE,19,4.0,-999.0,88,-99.99,,,0.01,weatherlink.com 1.10,2013-01-02 20:24:00,
2013-01-02 15:39:00,34.4,32.0,30.08,North,5,2.0,-999.0,89,-99.99,,,0.01,weatherlink.com 1.10,2013-01-02 20:39:00,
2013-01-02 15:54:00,33.8,31.0,30.08,NNW,342,4.0,-999.0,89,-99.99,,,0.01,weatherlink.com 1.10,2013-01-02 20:54:00,
2013-01-02 16:09:00,34.3,31.0,30.10,North,355,3.0,-999.0,89,-99.99,,,0.01,weatherlink.com 1.10,2013-01-02 21:09:00,
2013-01-02 16:24:00,34.3,31.0,30.09,North,355,0.0,-999.0,89,-99.99,,,0.01,weatherlink.com 1.10,2013-01-02 21:24:00,
2013-01-02 16:39:00,33.8,31.0,30.10,NNE,24,4.0,-999.0,90,-99.99,,,0.01,weatherlink.com 1.10,2013-01-02 21:39:00,
2013-01-02 16:54:00,33.7,31.0,30.10,North,5,3.0,-999.0,91,-99.99,,,0.01,weatherlink.com 1.10,2013-01-02 21:54:00,
2013-01-02 17:09:00,33.1,31.0,30.10,North,5,3.0,-999.0,91,-99.99,,,0.01,weatherlink.com 1.10,2013-01-02 22:09:00,
2013-01-02 17:24:00,32.4,30.0,30.10,North,5,2.0,-999.0,92,-99.99,,,0.01,weatherlink.com 1.10,2013-01-02 22:24:00,
2013-01-02 17:39:00,32.2,30.0,30.09,North,5,0.0,-999.0,93,-99.99,,,0.01,weatherlink.com 1.10,2013-01-02 22:39:00,
2013-01-02 17:54:00,32.2,30.0,30.12,North,5,3.0,-999.0,93,-99.99,,,0.01,weatherlink.com 1.10,2013-01-02 22:54:00,
2013-01-02 18:09:00,32.2,31.0,30.13,ENE,65,1.0,-999.0,94,-99.99,,,0.01,weatherlink.com 1.10,2013-01-02 23:09:00,
2013-01-02 18:24:00,32.9,31.0,30.14,SE,128,6.0,-999.0,94,-99.99,,,0.01,weatherlink.com 1.10,2013-01-02 23:24:00,
2013-01-02 18:39:00,33.9,32.0,30.14,SE,132,2.0,-999.0,91,-99.99,,,0.01,weatherlink.com 1.10,2013-01-02 23:39:00,
2013-01-02 18:54:00,34.0,31.0,30.14,SE,135,4.0,-999.0,90,-99.99,,,0.01,weatherlink.com 1.10,2013-01-02 23:54:00,
2013-01-02 19:09:00,33.9,31.0,30.15,SE,138,1.0,-999.0,90,-99.99,,,0.01,weatherlink.com 1.10,2013-01-03 00:09:00,
2013-01-02 19:24:00,33.5,31.0,30.14,SE,144,6.0,-999.0,90,-99.99,,,0.01,weatherlink.com 1.10,2013-01-03 00:24:00,
2013-01-02 19:39:00,33.2,31.0,30.14,SSE,148,2.0,-999.0,90,-99.99,,,0.01,weatherlink.com 1.10,2013-01-03 00:39:00,
2013-01-02 19:54:00,33.0,30.0,30.13,SSE,148,5.0,-999.0,90,-99.99,,,0.01,weatherlink.com 1.10,2013-01-03 00:54:00,
2013-01-02 20:09:00,32.7,30.0,30.15,SSE,148,1.0,-999.0,91,-99.99,,,0.01,weatherlink.com 1.10,2013-01-03 01:09:00,
2013-01-02 20:25:00,32.4,30.0,30.14,SSE,148,4.0,-999.0,91,-99.99,,,0.01,weatherlink.com 1.10,2013-01-03 01:25:00,
2013-01-02 20:40:00,32.3,30.0,30.16,SSE,148,2.0,-999.0,92,-99.99,,,0.01,weatherlink.com 1.10,2013-01-03 01:40:00,
2013-01-02 20:55:00,32.0,30.0,30.16,SSE,149,0.0,-999.0,93,-99.99,,,0.01,weatherlink.com 1.10,2013-01-03 01:55:00,
2013-01-02 21:09:00,31.8,30.0,30.17,SSE,149,0.0,-999.0,93,-99.99,,,0.01,weatherlink.com 1.10,2013-01-03 02:09:00,
2013-01-02 21:24:00,31.4,30.0,30.16,SSE,149,0.0,-999.0,95,-99.99,,,0.01,weatherlink.com 1.10,2013-01-03 02:24:00,
2013-01-02 21:39:00,31.2,30.0,30.17,SSE,149,2.0,-999.0,95,-99.99,,,0.01,weatherlink.com 1.10,2013-01-03 02:39:00,
2013-01-02 21:54:00,31.0,30.0,30.18,SSE,150,1.0,-999.0,96,-99.99,,,0.01,weatherlink.com 1.10,2013-01-03 02:54:00,
2013-01-02 22:09:00,31.0,30.0,30.18,SSE,150,2.0,-999.0,96,-99.99,,,0.01,weatherlink.com 1.10,2013-01-03 03:09:00,
2013-01-02 22:24:00,31.0,30.0,30.18,SSE,150,2.0,-999.0,97,-99.99,,,0.01,weatherlink.com 1.10,2013-01-03 03:24:00,
2013-01-02 22:39:00,31.0,30.0,30.18,SSE,152,2.0,-999.0,97,-99.99,,,0.01,weatherlink.com 1.10,2013-01-03 03:39:00,
2013-01-02 22:54:00,31.0,30.0,30.18,SSE,156,2.0,-999.0,97,-99.99,,,0.01,weatherlink.com 1.10,2013-01-03 03:54:00,
2013-01-02 23:09:00,30.9,30.0,30.18,SSE,161,2.0,-999.0,97,-99.99,,,0.01,weatherlink.com 1.10,2013-01-03 04:09:00,
2013-01-02 23:24:00,30.8,30.0,30.18,SSW,194,3.0,-999.0,97,-99.99,,,0.01,weatherlink.com 1.10,2013-01-03 04:24:00,
2013-01-02 23:39:00,30.4,30.0,30.17,SSW,197,7.0,-999.0,97,-99.99,,,0.01,weatherlink.com 1.10,2013-01-03 04:39:00,
2013-01-02 23:54:00,30.2,30.0,30.17,South,189,2.0,-999.0,97,-99.99,,,0.01,weatherlink.com 1.10,2013-01-03 04:54:00,